KBIX

Keesler AFB Airport

Biloxi, Mississippi, USA
METAR KBIX 241156Z AUTO 20008KT 10SM FEW013 BKN070 22/20 A3011 RMK AO2 SLP199 70115 T02190203 10222 20219 55001
Observed Flight Rules
Feb-24 @ 11:56 UTC (23 minutes ago) Visual Flight Rules
Wind Visibility Clouds
200° at 8 knots 10 miles
  • Few at 1,300' AGL
  • Broken at 7,000' AGL
Temperatures Readings
Current 22°C / 72°F
Dewpoint 20°C / 68°F
Humidity 88%
Altimeter 30.11" Hg
Pressure 1019.9 hPa
Elevation 10
METAR KBIX 241156Z AUTO 20008KT 10SM FEW013 BKN070 22/20 A3011 RMK AO2 SLP199 70115 T02190203 10222 20219 55001
Observed Flight Rules
Feb-24 @ 11:56 UTC
(23 minutes ago)
VFR
Wind Visibility
200° at 8 knots 10 miles
Clouds
  • Few at 1,300' AGL
  • Broken at 7,000' AGL
Temperature Dewpoint
22°C / 72°F 20°C / 68°F
Humidity Altimeter Pressure
88% 30.11" Hg 1019.9 hPa